This is the latest recevied weather packets stored in our database for station/object EFTP. If no packets are shown the sender has not sent any weather packets the latest 10 day(s).
| Time | Temp. | Humidity | Pressure | Rain* | Wind** | Luminosity | Snow |
|---|---|---|---|---|---|---|---|
| 1777384006 | 4.44° C | 41% | 1021.3 hPa | - | - | - | - |
| 1777382805 | 5° C | 41% | 1021.2 hPa | - | - | - | - |
| 1777381605 | 5° C | 39% | 1020.9 hPa | - | - | - | - |
| 1777380405 | 6.11° C | 36% | 1020.9 hPa | - | - | - | - |
| 1777379205 | 5° C | 36% | 1020.8 hPa | - | - | - | - |
| 1777378005 | 5.56° C | 36% | 1020.7 hPa | - | - | - | - |
| 1777376805 | 5° C | 36% | 1020.6 hPa | - | - | - | - |
| 1777375605 | 5° C | 36% | 1020.5 hPa | - | - | - | - |
| 1777374405 | 5° C | 38% | 1020.6 hPa | - | - | - | - |
| 1777373205 | 4.44° C | 37% | 1020.5 hPa | - | - | - | - |
| 1777372005 | 5° C | 36% | 1020.5 hPa | - | - | - | - |
| 1777370805 | 4.44° C | 38% | 1020.5 hPa | - | - | - | - |
| 1777369604 | 5° C | 34% | 1020.4 hPa | - | - | - | - |
| 1777368404 | 4.44° C | 36% | 1020.3 hPa | - | - | - | - |
| 1777367205 | 3.89° C | 37% | 1020.4 hPa | - | - | - | - |
| 1777366005 | 4.44° C | 37% | 1020.4 hPa | - | - | - | - |
| 1777364804 | 3.89° C | 39% | 1020.3 hPa | - | - | - | - |
| 1777363604 | 3.33° C | 41% | 1020.3 hPa | - | - | - | - |
| 1777362405 | 3.89° C | 41% | 1020.1 hPa | - | - | - | - |
| 1777361204 | 3.33° C | 42% | 1020 hPa | - | - | - | - |
| 1777360004 | 3.33° C | 43% | 1020.1 hPa | - | - | - | - |
| 1777358804 | 2.78° C | 44% | 1020 hPa | - | - | - | - |
| 1777357604 | 2.78° C | 49% | 1020.1 hPa | - | - | - | - |
| 1777356404 | 2.22° C | 52% | 1020.2 hPa | - | - | - | - |
| 1777355204 | 1.67° C | 52% | 1020.1 hPa | - | - | - | - |
* Rain since midnight (hover to see other rain measurements)
** Current wind speed in m/s (hover to see current wind gust speed)